Time;durP1;ratioP1;P1;durP2;ratioP2;P2;SDS_P1;SDS_P2;PMS_P1;PMS_P2;Temp;Humidity;BMP_temperature;BMP_pressure;BME280_temperature;BME280_humidity;BME280_pressure;Samples;Min_cycle;Max_cycle;Signal;HPM_P1;HPM_P2
2021/03/17 00:01:17;;;;;;;9.20;5.20;;;;;;;1.17;100.00;91964.19;4989786;28;20539;-77
2021/03/17 00:03:43;;;;;;;8.55;5.38;;;;;;;1.18;100.00;91957.38;4989928;28;20061;-77
2021/03/17 00:06:09;;;;;;;;;;;;;;;1.15;100.00;91961.06;4990111;28;20050;-77
2021/03/17 00:08:36;;;;;;;8.75;5.00;;;;;;;1.20;100.00;91963.81;4989639;28;19928;-77
2021/03/17 00:11:02;;;;;;;9.55;5.45;;;;;;;1.13;100.00;91957.94;4989280;28;20050;-77
2021/03/17 00:13:28;;;;;;;8.82;5.10;;;;;;;1.05;100.00;91958.06;4989714;28;20069;-77
2021/03/17 00:15:58;;;;;;;9.80;4.63;;;;;;;0.93;100.00;91950.19;4989886;28;20058;-77
2021/03/17 00:18:26;;;;;;;15.27;8.38;;;;;;;1.12;100.00;91955.59;4989983;28;20062;-77
2021/03/17 00:20:52;;;;;;;9.20;5.50;;;;;;;1.10;100.00;91962.59;4990020;28;20102;-77
2021/03/17 00:23:18;;;;;;;;;;;;;;;1.08;100.00;91962.75;5005326;28;20046;-77
2021/03/17 00:25:45;;;;;;;11.15;6.43;;;;;;;1.00;100.00;91957.81;5009306;28;19948;-77
2021/03/17 00:28:12;;;;;;;6.72;4.25;;;;;;;0.98;100.00;91964.81;5009159;28;20495;-77
2021/03/17 00:30:40;;;;;;;12.73;7.43;;;;;;;0.92;100.00;91964.56;5009432;28;20057;-77
2021/03/17 00:33:09;;;;;;;10.77;5.75;;;;;;;0.79;100.00;91962.72;5009350;28;20446;-77
2021/03/17 00:35:36;;;;;;;6.25;4.03;;;;;;;0.84;100.00;91961.41;5009175;28;20141;-78
2021/03/17 00:38:03;;;;;;;8.00;4.00;;;;;;;0.79;100.00;91961.94;5009436;28;20050;-80
2021/03/17 00:40:30;;;;;;;9.57;5.13;;;;;;;0.85;100.00;91961.22;5008956;28;20046;-80
2021/03/17 00:42:56;;;;;;;11.50;4.93;;;;;;;0.90;100.00;91955.59;5009415;28;20046;-80
2021/03/17 00:45:23;;;;;;;8.88;5.03;;;;;;;0.80;100.00;91949.09;5009009;28;20096;-79
2021/03/17 00:47:49;;;;;;;7.55;5.43;;;;;;;0.80;100.00;91948.34;5009095;28;20530;-80
2021/03/17 00:50:17;;;;;;;5.05;3.35;;;;;;;0.78;100.00;91950.25;5012904;28;20046;-81
2021/03/17 00:52:44;;;;;;;6.68;4.28;;;;;;;0.74;100.00;91949.84;5013006;28;20045;-81
2021/03/17 00:55:12;;;;;;;6.55;4.80;;;;;;;0.72;100.00;91931.53;5013170;28;20055;-81
2021/03/17 00:57:39;;;;;;;12.07;5.07;;;;;;;0.86;100.00;91941.75;5012910;28;20046;-77
2021/03/17 01:00:05;;;;;;;;;;;;;;;0.93;100.00;91940.84;5013512;28;20082;-77
2021/03/17 01:02:32;;;;;;;8.82;3.70;;;;;;;0.79;100.00;91941.72;5013073;28;19921;-77
2021/03/17 01:04:58;;;;;;;5.32;3.15;;;;;;;0.71;100.00;91934.25;5012814;28;20054;-78
2021/03/17 01:07:24;;;;;;;6.07;4.43;;;;;;;0.74;100.00;91924.56;5012747;28;20058;-77
2021/03/17 01:09:51;;;;;;;;;;;;;;;0.79;100.00;91936.66;5013211;28;20046;-77
2021/03/17 01:12:18;;;;;;;13.88;3.70;;;;;;;0.79;100.00;91929.09;5012923;28;19928;-77
2021/03/17 01:14:44;;;;;;;;;;;;;;;0.71;100.00;91927.47;5013165;28;20046;-77
2021/03/17 01:17:11;;;;;;;6.20;3.45;;;;;;;0.68;100.00;91930.34;5012478;28;19921;-77
2021/03/17 01:19:37;;;;;;;7.32;3.65;;;;;;;0.71;100.00;91922.41;5012375;28;20045;-81
2021/03/17 01:22:04;;;;;;;6.03;2.90;;;;;;;0.73;100.00;91924.72;5012193;28;20458;-79
2021/03/17 01:24:30;;;;;;;6.93;3.88;;;;;;;0.70;100.00;91920.84;5012130;28;20073;-80
2021/03/17 01:26:58;;;;;;;4.90;2.80;;;;;;;0.56;100.00;91925.00;5012306;28;20057;-79
2021/03/17 01:29:24;;;;;;;6.88;4.53;;;;;;;0.52;100.00;91923.78;5011714;28;20064;-80
2021/03/17 01:31:51;;;;;;;6.40;2.67;;;;;;;0.57;100.00;91913.94;5012221;28;20060;-80
2021/03/17 01:34:17;;;;;;;5.55;3.53;;;;;;;0.56;100.00;91919.16;5012472;28;20048;-80
2021/03/17 01:36:44;;;;;;;7.15;3.15;;;;;;;0.55;100.00;91920.13;5012127;28;20049;-78
2021/03/17 01:39:10;;;;;;;14.95;5.28;;;;;;;0.64;100.00;91924.06;5011768;28;20049;-80
2021/03/17 01:41:36;;;;;;;;;;;;;;;0.60;100.00;91922.88;5012589;28;20056;-81
2021/03/17 01:44:04;;;;;;;3.40;1.73;;;;;;;0.46;100.00;91927.03;5011779;28;19922;-81
2021/03/17 01:46:30;;;;;;;9.23;3.83;;;;;;;0.54;100.00;91929.44;5011659;28;20053;-82
2021/03/17 01:48:56;;;;;;;10.07;3.25;;;;;;;0.64;100.00;91924.06;5012324;28;20050;-81
2021/03/17 01:51:23;;;;;;;6.00;2.75;;;;;;;0.60;100.00;91935.53;5011575;28;20053;-80
2021/03/17 01:53:49;;;;;;;;;;;;;;;0.58;100.00;91933.16;5012413;28;20050;-79
2021/03/17 01:56:16;;;;;;;5.25;2.97;;;;;;;0.52;100.00;91926.31;5011792;28;19922;-78
2021/03/17 01:58:42;;;;;;;5.68;2.83;;;;;;;0.58;100.00;91932.38;5011953;28;20419;-77
2021/03/17 02:01:10;;;;;;;3.42;2.03;;;;;;;0.48;100.00;91927.63;5010621;28;20046;-78
2021/03/17 02:03:36;;;;;;;5.63;2.65;;;;;;;0.61;100.00;91937.09;5011973;28;20080;-78
2021/03/17 02:06:02;;;;;;;;;;;;;;;0.52;100.00;91927.09;5011947;28;20053;-79
2021/03/17 02:08:32;;;;;;;3.80;1.67;;;;;;;0.43;100.00;91928.19;5011179;28;19925;-78
2021/03/17 02:10:59;;;;;;;4.20;2.50;;;;;;;0.44;100.00;91918.84;5011369;28;20049;-78
2021/03/17 02:13:37;;;;;;;4.40;3.17;;;;;;;0.44;100.00;91916.31;5011364;28;20054;-79
2021/03/17 02:16:10;;;;;;;14.65;4.47;;;;;;;0.49;100.00;91912.28;5011268;28;20053;-79
2021/03/17 02:18:47;;;;;;;4.63;3.08;;;;;;;0.52;100.00;91927.09;5011735;28;20045;-79
2021/03/17 02:21:37;;;;;;;3.85;2.42;;;;;;;0.47;100.00;91919.25;5011472;28;20060;-79
2021/03/17 02:24:13;;;;;;;5.85;3.30;;;;;;;0.56;100.00;91930.06;5011025;28;20517;-80
2021/03/17 02:26:56;;;;;;;6.35;3.35;;;;;;;0.68;100.00;91927.03;5011486;28;20053;-79
2021/03/17 02:30:12;;;;;;;7.22;2.92;;;;;;;0.64;100.00;91921.53;5011110;28;20093;-76
2021/03/17 02:33:02;;;;;;;15.70;3.35;;;;;;;0.75;100.00;91933.69;5010893;28;20046;-77
2021/03/17 02:35:31;;;;;;;5.70;2.53;;;;;;;0.58;100.00;91914.69;5010826;28;20495;-77
2021/03/17 02:38:04;;;;;;;4.93;2.72;;;;;;;0.59;100.00;91921.31;5011033;28;20049;-77
2021/03/17 02:40:33;;;;;;;8.77;2.83;;;;;;;0.57;100.00;91929.09;5011031;28;20046;-76
2021/03/17 02:43:05;;;;;;;5.55;4.28;;;;;;;0.65;100.00;91936.53;5011000;28;20492;-76
2021/03/17 02:45:32;;;;;;;3.10;1.92;;;;;;;0.45;100.00;91945.66;5010707;28;20054;-76
2021/03/17 02:48:04;;;;;;;7.22;4.50;;;;;;;0.53;100.00;91943.03;5010773;28;20048;-76
2021/03/17 02:50:33;;;;;;;4.15;2.67;;;;;;;0.42;100.00;91946.03;5010619;28;20394;-76
2021/03/17 02:53:01;;;;;;;16.23;3.92;;;;;;;0.49;100.00;91939.28;5010835;28;20050;-76
2021/03/17 02:55:33;;;;;;;6.90;3.45;;;;;;;0.46;100.00;91921.97;5010395;28;20046;-76
2021/03/17 02:58:01;;;;;;;6.55;4.28;;;;;;;0.53;100.00;91945.56;5010235;28;20057;-76
2021/03/17 03:00:30;;;;;;;3.25;2.25;;;;;;;0.45;100.00;91938.09;5010482;28;20084;-76
2021/03/17 03:02:59;;;;;;;4.43;3.08;;;;;;;0.33;100.00;91938.56;5010477;28;20141;-76
2021/03/17 03:05:26;;;;;;;3.85;2.08;;;;;;;0.30;100.00;91950.75;5010371;28;20050;-76
2021/03/17 03:07:56;;;;;;;4.82;3.13;;;;;;;0.33;100.00;91946.13;5010628;28;20050;-77
2021/03/17 03:10:28;;;;;;;9.05;4.68;;;;;;;0.39;100.00;91942.13;5010393;28;20064;-79
2021/03/17 03:12:55;;;;;;;7.72;3.38;;;;;;;0.45;100.00;91955.75;5009394;28;20141;-78
2021/03/17 03:15:24;;;;;;;5.28;4.25;;;;;;;0.43;100.00;91953.44;5010171;28;20080;-77
2021/03/17 03:17:51;;;;;;;4.57;3.38;;;;;;;0.45;100.00;91956.56;5010147;28;20057;-76
2021/03/17 03:20:20;;;;;;;5.85;4.18;;;;;;;0.37;100.00;91949.88;5009956;28;20049;-79
2021/03/17 03:22:48;;;;;;;4.72;3.58;;;;;;;0.22;100.00;91932.25;5009934;28;20088;-78
2021/03/17 03:25:16;;;;;;;5.10;3.20;;;;;;;0.31;100.00;91947.28;5010134;28;20049;-79
2021/03/17 03:27:44;;;;;;;6.60;4.13;;;;;;;0.25;100.00;91953.81;5010084;28;20050;-80
2021/03/17 03:30:13;;;;;;;5.53;2.88;;;;;;;0.28;100.00;91955.22;5009684;28;20062;-78
2021/03/17 03:32:41;;;;;;;7.05;3.78;;;;;;;0.09;100.00;91922.78;5010009;28;20073;-77
2021/03/17 03:35:10;;;;;;;6.50;3.97;;;;;;;0.19;100.00;91939.38;5010061;28;20053;-78
2021/03/17 03:37:37;;;;;;;5.72;3.13;;;;;;;0.38;100.00;91950.66;5009977;28;20049;-78
2021/03/17 03:40:07;;;;;;;8.73;4.65;;;;;;;0.36;100.00;91955.88;5009918;28;20061;-78
2021/03/17 03:42:35;;;;;;;6.28;4.22;;;;;;;0.42;100.00;91961.19;5009939;28;20053;-78
2021/03/17 03:45:01;;;;;;;5.82;3.95;;;;;;;0.38;100.00;91965.81;5009259;28;20495;-78
2021/03/17 03:47:28;;;;;;;3.90;2.53;;;;;;;0.30;100.00;91969.25;5009636;28;20060;-78
2021/03/17 03:49:54;;;;;;;7.15;4.30;;;;;;;0.25;100.00;91962.19;5010006;28;20046;-78
2021/03/17 03:52:28;;;;;;;5.05;3.50;;;;;;;0.22;100.00;91939.81;5009868;28;20046;-78
2021/03/17 03:55:02;;;;;;;9.43;3.53;;;;;;;0.16;100.00;91953.16;5009937;28;20046;-78
2021/03/17 03:57:31;;;;;;;5.13;3.88;;;;;;;0.30;100.00;91954.09;5009367;28;20050;-78
2021/03/17 04:00:05;;;;;;;4.72;3.42;;;;;;;0.28;100.00;91957.75;5009859;28;20419;-78
2021/03/17 04:02:37;;;;;;;5.80;4.00;;;;;;;0.19;100.00;91960.34;5009397;28;20042;-79
2021/03/17 04:05:04;;;;;;;7.10;4.30;;;;;;;0.23;100.00;91958.28;5009039;28;20573;-79
2021/03/17 04:07:32;;;;;;;5.85;4.13;;;;;;;0.18;100.00;91953.75;5009109;28;20045;-78
2021/03/17 04:10:04;;;;;;;5.22;3.70;;;;;;;0.22;100.00;91959.22;5009525;28;20045;-79
2021/03/17 04:12:35;;;;;;;6.70;3.53;;;;;;;0.21;100.00;91968.56;5009295;28;20046;-79
2021/03/17 04:15:04;;;;;;;5.70;3.95;;;;;;;0.24;100.00;91959.84;5009319;28;20050;-79
2021/03/17 04:17:36;;;;;;;6.80;4.03;;;;;;;0.26;100.00;91962.97;5009474;28;20094;-79
2021/03/17 04:20:08;;;;;;;4.50;3.45;;;;;;;0.35;100.00;91961.13;5009626;28;20384;-79
2021/03/17 04:22:36;;;;;;;6.30;3.42;;;;;;;0.37;100.00;91962.50;5009057;28;20385;-79
2021/03/17 04:25:04;;;;;;;7.53;4.45;;;;;;;0.45;100.00;91964.13;5009087;28;20046;-79
2021/03/17 04:27:32;;;;;;;7.05;3.80;;;;;;;0.51;100.00;91975.28;5008993;28;20046;-79
2021/03/17 04:30:00;;;;;;;7.35;3.42;;;;;;;0.57;100.00;91969.50;5009225;28;20049;-80
2021/03/17 04:32:28;;;;;;;7.07;3.97;;;;;;;0.39;100.00;91973.22;5009382;28;20467;-80
2021/03/17 04:34:56;;;;;;;6.93;4.18;;;;;;;0.49;100.00;91970.41;5008967;28;20065;-79
2021/03/17 04:37:23;;;;;;;6.18;4.05;;;;;;;0.45;100.00;91960.81;5008896;28;20423;-80
2021/03/17 04:39:52;;;;;;;10.10;5.07;;;;;;;0.19;100.00;91935.09;5009160;28;20041;-80
2021/03/17 04:42:19;;;;;;;5.57;3.20;;;;;;;0.39;100.00;91969.91;5009080;28;20050;-80
2021/03/17 04:44:46;;;;;;;5.60;3.65;;;;;;;0.31;100.00;91977.56;5009231;28;20054;-80
2021/03/17 04:47:14;;;;;;;6.05;3.42;;;;;;;0.11;100.00;91948.66;5009071;28;20050;-78
2021/03/17 04:49:44;;;;;;;4.60;3.38;;;;;;;0.17;100.00;91947.13;5009351;28;20419;-79
2021/03/17 04:52:11;;;;;;;4.75;3.20;;;;;;;0.32;100.00;91976.66;5008779;28;20057;-81
2021/03/17 04:54:37;;;;;;;7.25;3.55;;;;;;;0.16;100.00;91965.78;5009001;28;20050;-79
2021/03/17 04:57:04;;;;;;;;;;;;;;;0.18;100.00;91983.28;5009325;28;20046;-79
2021/03/17 04:59:33;;;;;;;4.68;2.72;;;;;;;0.10;100.00;91984.16;5008859;28;20390;-81
2021/03/17 05:02:02;;;;;;;4.68;3.05;;;;;;;0.04;100.00;91967.19;5008999;28;20046;-80
2021/03/17 05:04:28;;;;;;;4.75;3.42;;;;;;;0.11;100.00;91976.41;5008794;28;20046;-78
2021/03/17 05:06:57;;;;;;;6.53;4.53;;;;;;;0.08;100.00;91981.81;5008435;28;20503;-78
2021/03/17 05:09:24;;;;;;;3.95;2.97;;;;;;;0.06;100.00;91991.31;5008995;28;20058;-79
2021/03/17 05:11:51;;;;;;;6.25;4.35;;;;;;;0.08;100.00;91989.38;5008760;28;20058;-78
2021/03/17 05:14:18;;;;;;;3.50;2.53;;;;;;;0.00;100.00;91976.88;5008895;28;20050;-79
2021/03/17 05:16:45;;;;;;;9.00;4.47;;;;;;;-0.23;100.00;91949.97;5008828;28;20064;-79
2021/03/17 05:19:15;;;;;;;6.00;3.88;;;;;;;0.08;100.00;91996.16;5008303;28;20046;-76
2021/03/17 05:21:42;;;;;;;4.32;3.47;;;;;;;0.15;100.00;91994.53;5008742;28;20046;-76
2021/03/17 05:24:12;;;;;;;5.78;2.78;;;;;;;0.21;100.00;91993.03;5008616;28;20060;-77
2021/03/17 05:26:39;;;;;;;5.90;3.40;;;;;;;0.26;100.00;91985.69;5008531;28;20053;-76
2021/03/17 05:29:06;;;;;;;8.88;4.63;;;;;;;0.29;100.00;91997.19;5008425;28;20054;-76
2021/03/17 05:31:33;;;;;;;4.75;3.40;;;;;;;0.16;100.00;91993.56;5008507;28;20501;-77
2021/03/17 05:33:59;;;;;;;6.10;4.72;;;;;;;0.19;100.00;91998.25;5008609;28;20098;-77
2021/03/17 05:36:25;;;;;;;;;;;;;;;0.28;100.00;91988.06;5010752;28;20073;-77
2021/03/17 05:38:53;;;;;;;5.45;2.83;;;;;;;0.15;100.00;91999.56;5012000;28;19926;-77
2021/03/17 05:41:20;;;;;;;3.50;2.33;;;;;;;0.10;100.00;92006.88;5012123;28;20546;-78
2021/03/17 05:43:48;;;;;;;6.78;4.00;;;;;;;-0.12;100.00;91951.28;5012287;28;20082;-81
2021/03/17 05:46:15;;;;;;;7.22;3.97;;;;;;;0.13;100.00;91973.69;5011844;28;20092;-78
2021/03/17 05:48:42;;;;;;;11.57;5.65;;;;;;;0.29;100.00;91992.13;5012000;28;20049;-78
2021/03/17 05:51:09;;;;;;;8.55;4.35;;;;;;;0.34;100.00;91984.81;5011553;28;20053;-78
2021/03/17 05:53:36;;;;;;;5.20;3.55;;;;;;;0.28;100.00;91996.41;5011992;28;20096;-79
2021/03/17 05:56:03;;;;;;;4.85;2.83;;;;;;;0.28;100.00;91998.16;5011898;28;20069;-78
2021/03/17 05:58:31;;;;;;;3.53;2.85;;;;;;;0.28;100.00;92008.25;5011859;28;20523;-80
2021/03/17 06:00:58;;;;;;;3.88;2.97;;;;;;;0.10;100.00;91996.78;5011977;28;20042;-79
2021/03/17 06:03:24;;;;;;;4.82;3.42;;;;;;;0.19;100.00;91998.25;5011697;28;20046;-78
2021/03/17 06:05:51;;;;;;;4.72;2.85;;;;;;;0.24;100.00;92003.53;5011872;28;20838;-78
2021/03/17 06:08:23;;;;;;;4.55;3.42;;;;;;;0.16;100.00;92016.28;5011852;28;20191;-79
2021/03/17 06:10:51;;;;;;;3.67;2.55;;;;;;;0.19;100.00;92018.44;5011353;28;20062;-79
2021/03/17 06:13:21;;;;;;;6.65;4.88;;;;;;;0.26;100.00;92021.06;5011669;28;20057;-78
2021/03/17 06:15:56;;;;;;;6.25;3.67;;;;;;;0.25;100.00;92016.97;5011115;28;20511;-78
2021/03/17 06:18:27;;;;;;;4.18;2.33;;;;;;;0.32;100.00;92019.59;5011590;28;20050;-78
2021/03/17 06:20:55;;;;;;;6.07;3.72;;;;;;;0.28;100.00;92019.16;5011192;28;20049;-81
2021/03/17 06:23:21;;;;;;;4.20;2.45;;;;;;;0.37;100.00;92014.78;5011059;28;20933;-80
2021/03/17 06:25:49;;;;;;;5.70;3.55;;;;;;;0.48;100.00;92018.59;5011409;28;20045;-79
2021/03/17 06:28:15;;;;;;;7.60;3.33;;;;;;;0.40;100.00;91996.72;5011090;28;20050;-80
2021/03/17 06:30:42;;;;;;;9.55;2.97;;;;;;;0.47;100.00;92010.22;5011730;28;20053;-80
2021/03/17 06:33:09;;;;;;;6.68;2.92;;;;;;;0.36;100.00;91991.25;5010715;28;20054;-80
2021/03/17 06:35:36;;;;;;;5.53;4.30;;;;;;;0.59;100.00;92014.81;5010864;28;20045;-79
2021/03/17 06:38:03;;;;;;;6.25;3.70;;;;;;;0.59;100.00;92012.28;5011250;28;20088;-80
2021/03/17 06:40:31;;;;;;;5.57;3.00;;;;;;;0.56;100.00;92002.53;5010549;28;20046;-79
2021/03/17 06:43:04;;;;;;;6.13;3.10;;;;;;;0.82;100.00;92026.53;5010914;28;20241;-79
2021/03/17 06:45:34;;;;;;;5.53;3.75;;;;;;;0.86;100.00;92013.34;5010740;28;20515;-79
2021/03/17 06:48:19;;;;;;;3.60;2.35;;;;;;;1.02;100.00;92019.91;5010433;28;20492;-79
2021/03/17 06:50:46;;;;;;;9.45;4.13;;;;;;;0.80;100.00;91997.13;5010876;28;20058;-78
2021/03/17 06:53:13;;;;;;;5.07;3.17;;;;;;;1.04;100.00;92020.50;5010707;28;20045;-78
2021/03/17 06:55:39;;;;;;;2.42;1.60;;;;;;;0.94;98.78;92032.66;5010533;28;20050;-78
2021/03/17 06:58:06;;;;;;;2.10;1.27;;;;;;;0.70;97.32;92021.16;5010701;28;20585;-78
2021/03/17 07:00:33;;;;;;;4.75;2.63;;;;;;;0.62;100.00;92020.31;5010743;28;20058;-78
2021/03/17 07:03:02;;;;;;;6.65;3.78;;;;;;;0.78;100.00;92029.41;5010255;28;20495;-78
2021/03/17 07:05:38;;;;;;;2.35;1.98;;;;;;;0.72;99.31;92035.19;5010234;28;20495;-78
2021/03/17 07:08:07;;;;;;;5.00;2.78;;;;;;;0.53;100.00;92011.25;5010069;28;20507;-78
2021/03/17 07:10:36;;;;;;;15.40;2.22;;;;;;;0.72;100.00;92027.59;5010062;28;20053;-78
2021/03/17 07:13:04;;;;;;;6.53;3.90;;;;;;;0.86;99.94;92020.94;5010870;28;20109;-78
2021/03/17 07:15:31;;;;;;;7.53;4.05;;;;;;;0.73;98.85;92020.78;5010130;28;20046;-78
2021/03/17 07:18:18;;;;;;;4.03;2.60;;;;;;;0.70;100.00;92019.41;5010114;28;20049;-78
2021/03/17 07:20:47;;;;;;;4.75;2.90;;;;;;;0.72;100.00;91999.78;5010170;28;20045;-79
2021/03/17 07:23:29;;;;;;;4.18;2.75;;;;;;;1.01;100.00;92025.91;5010231;28;20116;-78
2021/03/17 07:26:10;;;;;;;5.78;3.13;;;;;;;1.12;100.00;92022.16;5009866;28;20053;-78
2021/03/17 07:28:58;;;;;;;7.57;3.60;;;;;;;1.19;99.02;92020.44;5010035;28;20046;-78
2021/03/17 07:31:26;;;;;;;5.07;3.10;;;;;;;1.14;97.38;92017.69;5009860;28;20054;-78
2021/03/17 07:33:53;;;;;;;3.35;2.28;;;;;;;0.94;98.09;92030.13;5009784;28;20054;-78
2021/03/17 07:36:35;;;;;;;6.90;4.05;;;;;;;0.87;100.00;92019.16;5009833;28;20557;-79
2021/03/17 07:39:06;;;;;;;4.30;2.22;;;;;;;0.77;98.91;92024.53;5009894;28;20769;-78
2021/03/17 07:41:32;;;;;;;5.43;3.00;;;;;;;0.74;99.27;92015.56;5010056;28;20042;-79
2021/03/17 07:43:59;;;;;;;2.10;1.83;;;;;;;0.67;97.98;92032.41;5010105;28;20050;-78
2021/03/17 07:46:26;;;;;;;4.88;2.80;;;;;;;0.82;98.37;92016.41;5009472;28;20093;-79
2021/03/17 07:48:53;;;;;;;3.70;2.67;;;;;;;0.92;98.55;92020.19;5009860;28;20046;-78
2021/03/17 07:51:20;;;;;;;2.25;1.45;;;;;;;0.78;98.10;92019.28;5009977;28;20073;-78
2021/03/17 07:53:51;;;;;;;4.55;3.20;;;;;;;0.83;98.36;92016.22;5009355;28;20050;-78
2021/03/17 07:56:21;;;;;;;4.25;1.92;;;;;;;0.89;98.35;92019.78;5009671;28;20489;-79
2021/03/17 07:58:49;;;;;;;4.70;1.98;;;;;;;1.04;97.38;92024.78;5009492;28;20054;-79
2021/03/17 08:01:17;;;;;;;5.45;2.83;;;;;;;1.01;97.87;92018.34;5009756;28;20050;-78
2021/03/17 08:03:46;;;;;;;4.80;2.83;;;;;;;1.06;96.92;92028.69;5009668;28;20057;-78
2021/03/17 08:06:14;;;;;;;7.97;3.10;;;;;;;1.22;98.20;92029.41;5009130;28;20050;-79
2021/03/17 08:08:42;;;;;;;5.55;3.00;;;;;;;1.09;97.07;92009.84;5009297;28;20132;-79
2021/03/17 08:11:12;;;;;;;5.68;3.97;;;;;;;1.37;97.40;92034.41;5009336;28;20050;-79
2021/03/17 08:13:40;;;;;;;5.97;2.00;;;;;;;1.15;96.12;92029.34;5009432;28;20107;-78
2021/03/17 08:16:08;;;;;;;3.55;1.80;;;;;;;1.13;95.98;92036.34;5008929;28;20093;-78
2021/03/17 08:18:42;;;;;;;8.18;3.10;;;;;;;1.09;96.34;92024.22;5009388;28;20046;-78
2021/03/17 08:21:09;;;;;;;5.32;2.00;;;;;;;1.03;96.75;92033.34;5009254;28;20049;-78
2021/03/17 08:23:41;;;;;;;4.18;1.83;;;;;;;1.19;96.79;92030.56;5008913;28;20104;-78
2021/03/17 08:26:11;;;;;;;3.50;1.90;;;;;;;1.34;97.00;92019.56;5008742;28;20054;-78
2021/03/17 08:28:56;;;;;;;4.00;2.55;;;;;;;1.20;96.14;92006.03;5008926;28;20525;-78
2021/03/17 08:31:48;;;;;;;4.70;1.85;;;;;;;1.17;95.44;92031.72;5008799;28;20054;-77
2021/03/17 08:34:29;;;;;;;4.30;2.08;;;;;;;1.13;97.16;92011.06;5009156;28;20092;-78
2021/03/17 08:36:57;;;;;;;1.60;1.35;;;;;;;1.26;97.19;92030.63;5008884;28;20046;-78
2021/03/17 08:39:43;;;;;;;7.47;2.65;;;;;;;1.18;97.40;92026.47;5009143;28;20038;-79
2021/03/17 08:42:12;;;;;;;9.77;4.75;;;;;;;1.15;98.29;92024.28;5008785;28;20492;-78
2021/03/17 08:44:47;;;;;;;8.52;3.80;;;;;;;1.34;98.55;92027.16;5009268;28;20392;-78
2021/03/17 08:47:18;;;;;;;3.25;1.67;;;;;;;1.28;97.30;92030.41;5008750;28;20053;-78
2021/03/17 08:49:46;;;;;;;4.55;2.33;;;;;;;1.33;98.60;92020.53;5009377;28;20049;-79
2021/03/17 08:52:16;;;;;;;4.65;3.20;;;;;;;1.63;97.94;92045.69;5009115;28;20121;-79
2021/03/17 08:55:13;;;;;;;4.97;2.30;;;;;;;1.50;97.10;92031.19;5008820;28;20050;-79
2021/03/17 08:57:51;;;;;;;8.80;1.67;;;;;;;1.23;96.66;92035.25;5008878;28;20049;-79
2021/03/17 09:00:43;;;;;;;4.63;2.40;;;;;;;1.30;98.42;92041.94;5009037;28;20057;-79
2021/03/17 09:03:11;;;;;;;4.93;2.50;;;;;;;1.46;97.68;92040.91;5008561;28;20497;-79
2021/03/17 09:05:37;;;;;;;6.63;3.25;;;;;;;1.39;95.85;92039.28;5008961;28;20046;-79
2021/03/17 09:08:06;;;;;;;3.78;2.22;;;;;;;1.27;97.22;92019.53;5009189;28;20136;-78
2021/03/17 09:10:41;;;;;;;2.95;1.90;;;;;;;1.41;97.38;92022.97;5009791;28;20088;-79
2021/03/17 09:13:09;;;;;;;3.47;2.40;;;;;;;1.55;98.65;92035.69;5012558;28;20124;-79
2021/03/17 09:15:43;;;;;;;4.13;1.98;;;;;;;1.60;97.57;92043.53;5012667;28;20053;-79
2021/03/17 09:18:10;;;;;;;2.75;1.48;;;;;;;1.55;97.71;92036.50;5012079;28;20096;-79
2021/03/17 09:20:40;;;;;;;8.77;3.45;;;;;;;1.40;99.39;92035.78;5012146;28;20050;-80
2021/03/17 09:23:10;;;;;;;3.75;2.85;;;;;;;1.45;98.87;92041.09;5012390;28;20061;-80
2021/03/17 09:25:40;;;;;;;1.95;1.27;;;;;;;1.44;98.55;92031.94;5012325;28;20046;-79
2021/03/17 09:28:08;;;;;;;2.33;1.33;;;;;;;1.01;99.92;92036.03;5012341;28;20836;-78
2021/03/17 09:30:42;;;;;;;3.22;2.30;;;;;;;1.16;100.00;92035.97;5012546;28;20068;-79
2021/03/17 09:33:12;;;;;;;7.65;3.03;;;;;;;1.26;100.00;92037.41;5006455;28;20042;-79
2021/03/17 09:35:39;;;;;;;4.53;2.13;;;;;;;1.16;98.57;92028.38;5003689;28;20042;-79
2021/03/17 09:38:09;;;;;;;6.32;3.40;;;;;;;1.00;100.00;92037.00;5001641;28;20474;-79
2021/03/17 09:40:38;;;;;;;2.67;1.77;;;;;;;1.05;100.00;92037.25;5001721;28;20053;-80
2021/03/17 09:43:21;;;;;;;2.75;2.08;;;;;;;0.90;100.00;92012.03;5002534;28;20053;-80
2021/03/17 09:45:48;;;;;;;3.42;2.13;;;;;;;1.24;100.00;92057.06;5001379;28;20048;-80
2021/03/17 09:48:17;;;;;;;2.60;1.15;;;;;;;1.23;100.00;92052.94;5001314;28;20487;-79
2021/03/17 09:50:43;;;;;;;2.53;1.80;;;;;;;0.96;100.00;92022.38;5002829;28;20092;-80
2021/03/17 09:53:13;;;;;;;6.68;3.50;;;;;;;1.18;100.00;92039.13;5001928;28;20053;-80
2021/03/17 09:55:40;;;;;;;3.97;1.92;;;;;;;1.33;100.00;92044.09;5001751;28;20416;-80
2021/03/17 09:58:07;;;;;;;3.60;1.48;;;;;;;1.23;100.00;92040.31;5001154;28;20058;-80
2021/03/17 10:00:35;;;;;;;3.45;2.35;;;;;;;1.23;100.00;92053.75;5002197;28;20057;-80
2021/03/17 10:03:04;;;;;;;6.25;2.83;;;;;;;1.09;100.00;92041.94;5005544;28;20050;-80
2021/03/17 10:05:31;;;;;;;2.58;1.33;;;;;;;1.30;100.00;92044.47;5002647;28;20050;-80
2021/03/17 10:07:57;;;;;;;4.18;2.08;;;;;;;1.29;100.00;92039.59;4997385;28;20046;-80
2021/03/17 10:10:24;;;;;;;9.43;4.78;;;;;;;1.28;100.00;92040.53;4992130;28;20050;-80
2021/03/17 10:12:51;;;;;;;5.45;2.55;;;;;;;1.39;100.00;92049.41;4997993;28;20044;-80
2021/03/17 10:15:20;;;;;;;12.15;4.07;;;;;;;1.42;100.00;92018.66;5011822;28;20111;-80
2021/03/17 10:17:47;;;;;;;3.80;2.42;;;;;;;1.81;99.93;92054.59;5011556;28;20045;-80
2021/03/17 10:20:17;;;;;;;3.47;1.83;;;;;;;1.64;98.74;92049.78;5020336;28;20053;-80
2021/03/17 10:22:44;;;;;;;3.35;2.17;;;;;;;1.46;100.00;92056.09;5030901;28;20071;-80
2021/03/17 10:25:12;;;;;;;6.28;3.20;;;;;;;1.39;100.00;92052.69;5031021;28;20060;-80
2021/03/17 10:27:41;;;;;;;2.70;1.95;;;;;;;1.37;100.00;92053.84;5031618;28;20053;-80
2021/03/17 10:30:10;;;;;;;4.80;2.70;;;;;;;1.36;100.00;92045.50;5028938;28;20099;-79
2021/03/17 10:32:39;;;;;;;3.53;2.30;;;;;;;1.49;100.00;92052.41;5011579;28;20419;-80
2021/03/17 10:35:09;;;;;;;8.07;2.42;;;;;;;1.55;100.00;92045.81;5011137;28;20057;-79
2021/03/17 10:37:37;;;;;;;4.63;2.78;;;;;;;1.58;100.00;92063.94;5011487;28;20107;-80
2021/03/17 10:40:09;;;;;;;3.67;2.33;;;;;;;1.53;100.00;92066.25;5011112;28;20053;-80
2021/03/17 10:42:42;;;;;;;3.70;2.25;;;;;;;1.54;100.00;92064.50;5011030;28;20042;-79
2021/03/17 10:45:11;;;;;;;5.22;2.97;;;;;;;1.58;100.00;92063.19;5011010;28;20050;-80
2021/03/17 10:47:38;;;;;;;6.35;3.15;;;;;;;1.64;100.00;92064.19;5010969;28;20057;-80
2021/03/17 10:50:06;;;;;;;4.10;2.25;;;;;;;1.52;100.00;92051.25;5011233;28;20050;-80
2021/03/17 10:52:34;;;;;;;3.25;1.98;;;;;;;1.67;100.00;92062.06;5011141;28;20431;-79
2021/03/17 10:55:10;;;;;;;4.55;3.28;;;;;;;1.67;100.00;92064.59;5011180;28;20046;-80
2021/03/17 10:57:36;;;;;;;6.45;2.38;;;;;;;1.44;100.00;92058.00;5011053;28;20046;-80
2021/03/17 11:00:15;;;;;;;5.57;2.20;;;;;;;1.22;100.00;92031.94;5010968;28;20050;-79
2021/03/17 11:02:42;;;;;;;6.22;3.05;;;;;;;1.33;100.00;92061.81;5010934;28;20422;-79
2021/03/17 11:05:11;;;;;;;5.07;2.45;;;;;;;1.27;100.00;92052.44;5010951;28;20437;-79
2021/03/17 11:07:51;;;;;;;3.53;2.60;;;;;;;0.98;100.00;92043.19;5000842;28;20046;-80
2021/03/17 11:10:42;;;;;;;4.20;2.65;;;;;;;0.99;100.00;92062.47;4990917;28;20526;-79
2021/03/17 11:13:42;;;;;;;5.32;3.45;;;;;;;0.87;100.00;92062.94;4985560;28;20538;-79
2021/03/17 11:16:28;;;;;;;5.68;3.22;;;;;;;0.85;100.00;92059.81;4990643;28;20046;-79
2021/03/17 11:18:56;;;;;;;10.02;4.28;;;;;;;0.87;100.00;92068.00;4991085;28;20057;-79
2021/03/17 11:21:25;;;;;;;8.30;3.67;;;;;;;1.02;100.00;92050.25;4991068;28;20061;-79
2021/03/17 11:23:53;;;;;;;5.50;3.75;;;;;;;1.19;100.00;92060.13;4991257;28;20094;-79
2021/03/17 11:26:23;;;;;;;6.07;3.33;;;;;;;1.18;100.00;92063.63;4990705;28;20042;-79
2021/03/17 11:28:50;;;;;;;4.80;3.00;;;;;;;1.31;100.00;92063.72;4990538;28;20061;-80
2021/03/17 11:31:24;;;;;;;4.07;2.85;;;;;;;0.98;100.00;92064.22;5009051;28;20097;-80
2021/03/17 11:33:50;;;;;;;4.13;3.45;;;;;;;0.86;100.00;92063.91;5028836;28;20453;-79
2021/03/17 11:36:17;;;;;;;8.65;2.17;;;;;;;0.96;100.00;92065.38;5029855;28;20058;-79
2021/03/17 11:38:44;;;;;;;7.57;3.55;;;;;;;1.05;100.00;92062.53;5023281;28;20434;-79
2021/03/17 11:41:12;;;;;;;8.23;4.85;;;;;;;1.12;100.00;92067.66;5021993;28;20498;-79
2021/03/17 11:43:40;;;;;;;4.10;2.78;;;;;;;1.24;100.00;92067.97;5028688;28;20049;-80
2021/03/17 11:46:06;;;;;;;5.90;2.72;;;;;;;1.29;100.00;92068.19;5028064;28;20486;-80
2021/03/17 11:48:33;;;;;;;5.00;3.00;;;;;;;1.22;100.00;92048.84;5028905;28;20052;-79